createdAt,value
2022-08-02T00:00:11.797Z,74.91
2022-08-02T00:02:38.467Z,75.00
2022-08-02T00:05:05.563Z,74.79
2022-08-02T00:07:35.177Z,74.73
2022-08-02T00:10:07.832Z,74.53
2022-08-02T00:12:34.406Z,74.56
2022-08-02T00:15:00.947Z,74.10
2022-08-02T00:17:27.627Z,74.24
2022-08-02T00:19:55.100Z,74.30
2022-08-02T00:22:21.685Z,74.51
2022-08-02T00:24:48.257Z,75.26
2022-08-02T00:27:14.790Z,75.05
2022-08-02T00:29:42.608Z,75.12
2022-08-02T00:32:19.970Z,75.36
2022-08-02T00:34:46.787Z,75.60
2022-08-02T00:37:13.355Z,75.72
2022-08-02T00:39:40.044Z,75.50
2022-08-02T00:42:06.971Z,75.56
2022-08-02T00:44:33.593Z,75.59
2022-08-02T00:47:00.291Z,75.84
2022-08-02T00:49:27.120Z,76.10
2022-08-02T00:51:53.730Z,75.97
2022-08-02T00:54:21.073Z,76.01
2022-08-02T00:56:51.038Z,75.55
2022-08-02T00:59:18.385Z,76.06
2022-08-02T01:01:54.809Z,75.63
2022-08-02T01:04:31.367Z,75.18
2022-08-02T01:07:12.761Z,75.36
2022-08-02T01:09:45.049Z,76.13
2022-08-02T01:12:12.948Z,75.98
2022-08-02T01:14:46.187Z,75.99
2022-08-02T01:17:23.836Z,76.78
2022-08-02T01:20:21.009Z,76.66
2022-08-02T01:23:15.346Z,76.36
2022-08-02T01:26:03.914Z,76.33
2022-08-02T01:28:36.439Z,76.53
2022-08-02T01:31:06.773Z,76.63
2022-08-02T01:33:40.808Z,77.20
2022-08-02T01:36:11.963Z,76.88
2022-08-02T01:38:48.430Z,76.55
2022-08-02T01:41:19.381Z,76.37
2022-08-02T01:43:49.631Z,76.87
2022-08-02T01:46:17.844Z,76.80
2022-08-02T01:48:45.874Z,76.78
2022-08-02T01:51:16.620Z,76.59
2022-08-02T01:53:45.999Z,76.68
2022-08-02T01:56:17.446Z,76.53
2022-08-02T01:58:47.337Z,76.72
2022-08-02T02:01:18.455Z,76.89
2022-08-02T02:03:47.576Z,77.23
2022-08-02T02:06:16.228Z,77.27
2022-08-02T02:08:44.328Z,77.14
2022-08-02T02:12:09.399Z,77.04
2022-08-02T02:13:59.759Z,77.28
2022-08-02T02:16:28.098Z,77.22
2022-08-02T02:18:55.288Z,77.13
2022-08-02T02:21:22.075Z,77.22
2022-08-02T02:23:50.075Z,77.20
2022-08-02T02:26:28.462Z,77.14
2022-08-02T02:29:01.612Z,76.55
2022-08-02T02:31:32.644Z,77.25
2022-08-02T02:34:02.994Z,77.46
2022-08-02T02:36:35.251Z,77.81
2022-08-02T02:39:04.435Z,77.91
2022-08-02T02:41:40.914Z,77.78
2022-08-02T02:44:11.164Z,77.50
2022-08-02T02:46:40.947Z,77.35
2022-08-02T02:49:10.370Z,77.18
2022-08-02T02:51:40.807Z,77.59
2022-08-02T02:54:30.693Z,77.72
2022-08-02T02:56:58.297Z,77.47
2022-08-02T02:59:25.334Z,77.72
2022-08-02T03:01:56.658Z,77.50
2022-08-02T03:04:27.096Z,77.36
2022-08-02T03:06:54.992Z,77.41
2022-08-02T03:09:21.604Z,77.34
2022-08-02T03:11:48.798Z,77.07
2022-08-02T03:14:16.202Z,76.91
2022-08-02T03:16:47.161Z,76.43
2022-08-02T03:19:14.134Z,76.01
2022-08-02T03:21:42.216Z,76.19
2022-08-02T03:24:09.359Z,76.41
2022-08-02T03:27:16.746Z,76.31
2022-08-02T03:29:43.243Z,76.17
2022-08-02T03:32:10.018Z,75.80
2022-08-02T03:34:37.003Z,76.06
2022-08-02T03:37:04.842Z,76.02
2022-08-02T03:39:32.620Z,75.88
2022-08-02T03:41:59.306Z,75.74
2022-08-02T03:44:26.608Z,75.87
2022-08-02T03:46:57.157Z,75.50
2022-08-02T03:49:24.262Z,75.58
2022-08-02T03:51:51.135Z,75.12
2022-08-02T03:54:18.844Z,74.83
2022-08-02T03:56:55.948Z,74.57
2022-08-02T03:59:22.492Z,74.98
2022-08-02T04:01:51.076Z,75.49
2022-08-02T04:04:17.611Z,75.36
2022-08-02T04:06:46.305Z,75.49
2022-08-02T04:09:13.367Z,75.57
2022-08-02T04:11:39.877Z,75.83
2022-08-02T04:14:11.316Z,76.02
2022-08-02T04:16:40.963Z,75.82
2022-08-02T04:19:15.204Z,76.24
2022-08-02T04:21:51.612Z,75.89
2022-08-02T04:24:25.829Z,76.07
2022-08-02T04:26:58.069Z,75.74
2022-08-02T04:29:35.271Z,75.68
2022-08-02T04:32:03.730Z,75.47
2022-08-02T04:34:31.019Z,75.38
2022-08-02T04:37:01.267Z,75.81
2022-08-02T04:39:28.227Z,75.66
2022-08-02T04:41:57.722Z,76.00
2022-08-02T04:44:24.694Z,76.06
2022-08-02T04:46:54.662Z,75.98
2022-08-02T04:49:21.196Z,75.85
2022-08-02T04:51:47.708Z,75.99
2022-08-02T04:54:14.304Z,76.44
2022-08-02T04:56:46.171Z,76.83
2022-08-02T04:59:12.950Z,76.97
2022-08-02T05:01:40.059Z,77.32
2022-08-02T05:04:06.600Z,77.49
2022-08-02T05:06:40.631Z,77.80
2022-08-02T05:09:07.158Z,77.39
2022-08-02T05:11:36.241Z,77.75
2022-08-02T05:14:04.939Z,77.53
2022-08-02T05:16:37.787Z,77.40
2022-08-02T05:19:04.382Z,77.41
2022-08-02T05:21:31.928Z,77.37
2022-08-02T05:23:58.909Z,76.74
2022-08-02T05:26:32.851Z,76.18
2022-08-02T05:28:59.581Z,75.78
2022-08-02T05:31:26.146Z,75.35
2022-08-02T05:33:52.868Z,74.88
2022-08-02T05:36:22.743Z,74.26
2022-08-02T05:38:51.159Z,73.88
2022-08-02T05:41:19.396Z,73.46
2022-08-02T05:43:47.108Z,73.41
2022-08-02T05:46:13.744Z,73.32
2022-08-02T05:48:40.299Z,72.90
2022-08-02T05:51:12.476Z,72.62
2022-08-02T05:54:10.004Z,72.51
2022-08-02T05:56:51.009Z,72.35
2022-08-02T05:59:53.470Z,71.77
2022-08-02T06:02:37.754Z,71.50
2022-08-02T06:05:11.611Z,71.39
2022-08-02T06:07:41.887Z,70.83
2022-08-02T06:10:09.580Z,70.84
2022-08-02T06:12:49.360Z,70.53
2022-08-02T06:15:20.325Z,70.59
2022-08-02T06:17:48.121Z,70.14
2022-08-02T06:20:17.956Z,69.83
2022-08-02T06:22:46.047Z,69.70
2022-08-02T06:25:50.350Z,69.79
2022-08-02T06:28:02.295Z,69.69
2022-08-02T06:30:30.101Z,69.31
2022-08-02T06:32:57.069Z,69.35
2022-08-02T06:35:30.972Z,69.27
2022-08-02T06:38:00.802Z,69.34
2022-08-02T06:40:49.474Z,69.05
2022-08-02T06:43:39.738Z,68.71
2022-08-02T06:47:09.864Z,68.44
2022-08-02T06:48:54.222Z,68.25
2022-08-02T06:51:21.035Z,68.00
2022-08-02T06:53:48.398Z,67.66
2022-08-02T06:56:15.020Z,67.54
2022-08-02T06:58:41.393Z,67.69
2022-08-02T07:01:08.026Z,67.58
2022-08-02T07:03:35.292Z,67.40
2022-08-02T07:06:02.201Z,67.24
2022-08-02T07:08:32.353Z,67.03
2022-08-02T07:11:03.031Z,66.75
2022-08-02T07:13:29.910Z,66.31
2022-08-02T07:15:56.699Z,66.73
2022-08-02T07:18:23.904Z,66.58
2022-08-02T07:20:50.545Z,66.08
2022-08-02T07:23:17.108Z,66.10
2022-08-02T07:26:02.795Z,66.08
2022-08-02T07:28:30.049Z,65.48
2022-08-02T07:30:56.559Z,65.66
2022-08-02T07:33:39.095Z,65.33
2022-08-02T07:36:09.831Z,65.03
2022-08-02T07:38:43.162Z,65.17
2022-08-02T07:41:11.894Z,65.86
2022-08-02T07:43:38.328Z,65.83
2022-08-02T07:46:04.791Z,65.89
2022-08-02T07:48:31.208Z,65.24
2022-08-02T07:50:57.587Z,64.93
2022-08-02T07:53:49.786Z,65.32
2022-08-02T07:56:10.365Z,64.93
2022-08-02T07:58:36.910Z,65.18
2022-08-02T08:01:03.480Z,65.07
2022-08-02T08:03:29.916Z,64.86
2022-08-02T08:05:56.595Z,64.93
2022-08-02T08:08:22.996Z,64.60
2022-08-02T08:10:49.726Z,64.75
2022-08-02T08:13:16.406Z,64.35
2022-08-02T08:15:51.770Z,64.36
2022-08-02T08:18:19.721Z,64.02
2022-08-02T08:20:46.118Z,63.66
2022-08-02T08:23:12.573Z,62.81
2022-08-02T08:25:41.237Z,63.00
2022-08-02T08:28:08.491Z,62.97
2022-08-02T08:30:34.913Z,63.00
2022-08-02T08:33:01.467Z,62.50
2022-08-02T08:35:28.230Z,61.52
2022-08-02T08:37:55.155Z,61.31
2022-08-02T08:40:21.634Z,60.59
2022-08-02T08:42:48.076Z,59.94
2022-08-02T08:45:14.527Z,59.48
2022-08-02T08:47:42.557Z,59.49
2022-08-02T08:50:17.138Z,60.04
2022-08-02T08:52:54.552Z,59.48
2022-08-02T08:55:23.852Z,59.28
2022-08-02T08:57:51.168Z,59.03
2022-08-02T09:00:17.806Z,59.48
2022-08-02T09:02:44.492Z,59.61
2022-08-02T09:05:13.338Z,58.89
2022-08-02T09:07:42.725Z,59.38
2022-08-02T09:10:40.246Z,58.55
2022-08-02T09:13:38.283Z,58.06
2022-08-02T09:16:12.553Z,57.81
2022-08-02T09:18:44.583Z,57.52
2022-08-02T09:21:12.017Z,57.96
2022-08-02T09:23:40.262Z,57.27
2022-08-02T09:26:13.939Z,56.83
2022-08-02T09:28:42.734Z,56.47
2022-08-02T09:31:14.650Z,56.60
2022-08-02T09:33:44.191Z,56.01
2022-08-02T09:36:13.102Z,56.56
2022-08-02T09:38:41.403Z,55.88
2022-08-02T09:41:21.064Z,56.12
2022-08-02T09:44:03.658Z,55.53
2022-08-02T09:46:36.275Z,56.04
2022-08-02T09:49:05.312Z,54.48
2022-08-02T09:51:41.034Z,55.14
2022-08-02T09:54:09.963Z,54.03
2022-08-02T09:56:42.436Z,52.95
2022-08-02T09:59:09.742Z,53.42
2022-08-02T10:01:38.921Z,53.40
2022-08-02T10:04:07.863Z,52.85
2022-08-02T10:06:34.807Z,53.24
2022-08-02T10:09:02.888Z,51.56
2022-08-02T10:11:29.542Z,50.90
2022-08-02T10:13:56.151Z,50.53
2022-08-02T10:16:24.087Z,51.88
2022-08-02T10:18:54.647Z,51.18
2022-08-02T10:21:30.665Z,51.13
2022-08-02T10:24:06.590Z,51.58
2022-08-02T10:26:33.677Z,51.70
2022-08-02T10:29:01.378Z,52.14
2022-08-02T10:31:54.543Z,52.48
2022-08-02T10:34:24.837Z,52.53
2022-08-02T10:37:02.849Z,50.48
2022-08-02T10:39:38.845Z,50.28
2022-08-02T10:42:05.439Z,48.58
2022-08-02T10:44:34.144Z,49.69
2022-08-02T10:47:25.650Z,49.07
2022-08-02T10:49:56.139Z,48.82
2022-08-02T10:52:24.540Z,48.00
2022-08-02T10:54:57.975Z,48.22
2022-08-02T10:57:29.904Z,48.30
2022-08-02T11:00:25.165Z,47.57
2022-08-02T11:02:53.324Z,46.00
2022-08-02T11:05:42.911Z,46.49
2022-08-02T11:08:20.988Z,46.24
2022-08-02T11:10:47.854Z,45.64
2022-08-02T11:13:16.806Z,44.53
2022-08-02T11:16:09.308Z,44.80
2022-08-02T11:18:43.942Z,44.22
2022-08-02T11:21:28.331Z,44.37
2022-08-02T11:24:29.087Z,43.96
2022-08-02T11:26:57.101Z,41.83
2022-08-02T11:29:32.741Z,41.46
2022-08-02T11:32:09.284Z,40.06
2022-08-02T11:34:38.327Z,40.38
2022-08-02T11:37:05.393Z,39.99
2022-08-02T11:39:31.910Z,40.45
2022-08-02T11:41:59.879Z,38.62
2022-08-02T11:44:29.062Z,40.11
2022-08-02T11:47:01.883Z,39.01
2022-08-02T11:49:29.248Z,38.62
2022-08-02T11:52:07.374Z,39.44
2022-08-02T11:54:42.355Z,39.32
2022-08-02T11:57:21.180Z,38.69
2022-08-02T11:59:51.702Z,37.87
2022-08-02T12:02:21.096Z,37.21
2022-08-02T12:04:59.085Z,37.29
2022-08-02T12:07:34.449Z,36.57
2022-08-02T12:10:10.469Z,35.50
2022-08-02T12:12:56.728Z,36.08
2022-08-02T12:15:50.506Z,36.47
2022-08-02T12:18:37.637Z,36.73
2022-08-02T12:21:20.595Z,35.17
2022-08-02T12:24:00.638Z,36.73
2022-08-02T12:26:28.496Z,35.41
2022-08-02T12:28:57.693Z,35.61
2022-08-02T12:31:57.122Z,36.38
2022-08-02T12:34:30.029Z,36.46
2022-08-02T12:37:07.110Z,35.32
2022-08-02T12:39:41.679Z,36.43
2022-08-02T12:42:11.517Z,36.33
2022-08-02T12:44:49.512Z,36.99
2022-08-02T12:47:16.164Z,36.89
2022-08-02T12:49:42.709Z,35.55
2022-08-02T12:52:23.162Z,35.48
2022-08-02T12:54:50.264Z,34.81
2022-08-02T12:57:18.963Z,33.24
2022-08-02T12:59:53.485Z,34.78
2022-08-02T13:02:21.257Z,33.57
2022-08-02T13:04:50.141Z,34.26
2022-08-02T13:07:17.636Z,34.46
2022-08-02T13:09:48.293Z,33.80
2022-08-02T13:12:15.650Z,33.67
2022-08-02T13:14:42.863Z,33.85
2022-08-02T13:17:11.365Z,33.45
2022-08-02T13:19:38.604Z,33.23
2022-08-02T13:22:05.635Z,33.34
2022-08-02T13:24:41.158Z,31.86
2022-08-02T13:27:20.813Z,31.40
2022-08-02T13:29:48.824Z,31.45
2022-08-02T13:32:15.842Z,30.66
2022-08-02T13:34:42.754Z,30.35
2022-08-02T13:37:09.289Z,29.99
2022-08-02T13:39:35.946Z,29.15
2022-08-02T13:42:02.482Z,29.16
2022-08-02T13:44:28.950Z,27.61
2022-08-02T13:46:55.921Z,28.32
2022-08-02T13:49:50.721Z,27.75
2022-08-02T13:52:09.340Z,28.43
2022-08-02T13:54:36.179Z,28.31
2022-08-02T13:57:02.796Z,28.24
2022-08-02T13:59:57.051Z,29.29
2022-08-02T14:02:18.443Z,30.07
2022-08-02T14:04:45.373Z,30.30
2022-08-02T14:07:11.996Z,30.45
2022-08-02T14:09:38.732Z,29.95
2022-08-02T14:12:11.165Z,30.24
2022-08-02T14:14:38.207Z,28.92
2022-08-02T14:17:04.822Z,28.41
2022-08-02T14:19:31.407Z,29.43
2022-08-02T14:22:10.966Z,28.58
2022-08-02T14:24:38.173Z,28.95
2022-08-02T14:27:04.896Z,30.29
2022-08-02T14:29:31.422Z,28.48
2022-08-02T14:31:57.968Z,28.99
2022-08-02T14:34:24.422Z,29.08
2022-08-02T14:36:53.889Z,29.04
2022-08-02T14:39:20.963Z,28.17
2022-08-02T14:41:58.873Z,27.94
2022-08-02T14:44:28.373Z,28.54
2022-08-02T14:46:55.468Z,28.64
2022-08-02T14:49:26.797Z,29.31
2022-08-02T14:52:02.889Z,28.71
2022-08-02T14:54:31.447Z,29.18
2022-08-02T14:56:59.547Z,29.06
2022-08-02T14:59:26.556Z,30.49
2022-08-02T15:01:53.639Z,30.22
2022-08-02T15:04:20.688Z,30.12
2022-08-02T15:06:47.309Z,30.56
2022-08-02T15:09:13.750Z,29.67
2022-08-02T15:11:47.580Z,30.00
2022-08-02T15:14:15.158Z,30.86
2022-08-02T15:16:55.936Z,30.66
2022-08-02T15:19:23.307Z,30.76
2022-08-02T15:21:56.824Z,31.57
2022-08-02T15:24:23.559Z,30.61
2022-08-02T15:26:50.814Z,29.83
2022-08-02T15:29:18.220Z,29.45
2022-08-02T15:31:44.633Z,30.27
2022-08-02T15:34:11.075Z,31.07
2022-08-02T15:36:38.036Z,30.91
2022-08-02T15:39:04.726Z,32.02
2022-08-02T15:41:31.593Z,31.67
2022-08-02T15:44:01.157Z,31.67
2022-08-02T15:46:30.900Z,32.05
2022-08-02T15:48:59.547Z,32.02
2022-08-02T15:51:26.553Z,32.04
2022-08-02T15:53:52.978Z,31.73
2022-08-02T15:56:23.961Z,32.28
2022-08-02T15:58:53.002Z,31.63
2022-08-02T16:01:24.070Z,31.56
2022-08-02T16:03:50.802Z,31.88
2022-08-02T16:06:17.699Z,33.52
2022-08-02T16:08:53.597Z,34.23
2022-08-02T16:11:21.566Z,35.25
2022-08-02T16:13:53.581Z,34.42
2022-08-02T16:16:23.783Z,33.80
2022-08-02T16:18:50.506Z,34.15
2022-08-02T16:21:17.157Z,34.38
2022-08-02T16:24:01.969Z,32.56
2022-08-02T16:26:34.403Z,32.34
2022-08-02T16:29:02.440Z,32.80
2022-08-02T16:31:29.397Z,32.38
2022-08-02T16:33:57.109Z,32.98
2022-08-02T16:36:25.121Z,31.53
2022-08-02T16:38:53.209Z,32.21
2022-08-02T16:41:20.055Z,33.08
2022-08-02T16:43:46.590Z,32.94
2022-08-02T16:46:13.350Z,33.40
2022-08-02T16:48:39.999Z,35.27
2022-08-02T16:51:13.657Z,37.43
2022-08-02T16:53:59.901Z,37.59
2022-08-02T16:56:30.375Z,36.70
2022-08-02T16:58:59.481Z,34.68
2022-08-02T17:01:28.030Z,34.01
2022-08-02T17:04:14.261Z,32.44
2022-08-02T17:06:47.871Z,33.66
2022-08-02T17:10:04.028Z,34.55
2022-08-02T17:12:07.625Z,34.44
2022-08-02T17:14:41.988Z,32.95
2022-08-02T17:17:33.821Z,33.22
2022-08-02T17:20:01.478Z,32.30
2022-08-02T17:22:27.894Z,32.10
2022-08-02T17:24:54.428Z,32.93
2022-08-02T17:27:21.935Z,32.74
2022-08-02T17:29:48.430Z,32.02
2022-08-02T17:32:15.487Z,31.67
2022-08-02T17:34:56.401Z,31.90
2022-08-02T17:37:26.604Z,32.27
2022-08-02T17:39:57.177Z,32.63
2022-08-02T17:42:24.731Z,32.75
2022-08-02T17:45:00.887Z,33.54
2022-08-02T17:47:33.945Z,32.63
2022-08-02T17:50:09.624Z,32.21
2022-08-02T17:52:51.021Z,33.14
2022-08-02T17:55:19.685Z,35.55
2022-08-02T17:57:58.035Z,37.51
2022-08-02T18:00:31.851Z,39.04
2022-08-02T18:03:00.699Z,40.22
2022-08-02T18:05:38.826Z,41.75
2022-08-02T18:08:07.392Z,43.14
2022-08-02T18:10:34.060Z,44.02
2022-08-02T18:13:00.561Z,45.05
2022-08-02T18:15:28.660Z,45.85
2022-08-02T18:17:58.882Z,46.41
2022-08-02T18:20:25.347Z,47.35
2022-08-02T18:22:55.588Z,47.44
2022-08-02T18:28:15.687Z,48.04
2022-08-02T18:30:42.708Z,49.07
2022-08-02T18:33:55.137Z,48.70
2022-08-02T18:35:56.040Z,49.01
2022-08-02T18:38:24.850Z,49.24
2022-08-02T18:40:58.718Z,50.12
2022-08-02T18:43:29.336Z,49.59
2022-08-02T18:46:05.599Z,50.00
2022-08-02T18:48:35.307Z,50.38
2022-08-02T18:51:02.371Z,49.90
2022-08-02T18:53:41.466Z,50.62
2022-08-02T18:56:19.194Z,51.23
2022-08-02T18:58:47.983Z,51.57
2022-08-02T19:01:21.834Z,51.84
2022-08-02T19:03:59.782Z,52.13
2022-08-02T19:06:27.502Z,52.73
2022-08-02T19:09:05.422Z,53.06
2022-08-02T19:11:37.130Z,53.10
2022-08-02T19:14:03.844Z,53.17
2022-08-02T19:16:37.141Z,53.69
2022-08-02T19:19:07.610Z,54.11
2022-08-02T19:22:17.559Z,55.11
2022-08-02T19:24:20.697Z,54.62
2022-08-02T19:26:51.879Z,54.86
2022-08-02T19:29:42.083Z,55.22
2022-08-02T19:32:40.667Z,54.99
2022-08-02T19:34:56.276Z,55.40
2022-08-02T19:37:22.819Z,55.59
2022-08-02T19:39:50.196Z,55.85
2022-08-02T19:42:17.014Z,56.09
2022-08-02T19:44:45.636Z,56.12
2022-08-02T19:47:19.285Z,55.82
2022-08-02T19:49:48.815Z,56.29
2022-08-02T19:52:21.259Z,56.32
2022-08-02T19:54:55.816Z,56.18
2022-08-02T19:57:23.466Z,56.59
2022-08-02T19:59:54.346Z,57.14
2022-08-02T20:02:21.159Z,57.28
2022-08-02T20:04:50.160Z,58.12
2022-08-02T20:07:55.327Z,58.01
2022-08-02T20:10:10.903Z,58.68
2022-08-02T20:12:39.012Z,58.41
2022-08-02T20:15:14.474Z,58.93
2022-08-02T20:17:47.176Z,59.14
2022-08-02T20:20:14.693Z,58.72
2022-08-02T20:23:32.382Z,58.95
2022-08-02T20:26:14.987Z,58.48
2022-08-02T20:28:41.481Z,59.32
2022-08-02T20:31:09.420Z,60.63
2022-08-02T20:33:36.622Z,60.38
2022-08-02T20:36:25.453Z,60.55
2022-08-02T20:38:52.288Z,60.24
2022-08-02T20:41:22.178Z,60.97
2022-08-02T20:43:49.490Z,61.42
2022-08-02T20:46:19.383Z,61.02
2022-08-02T20:48:45.859Z,61.23
2022-08-02T20:51:13.987Z,61.51
2022-08-02T20:53:50.362Z,62.01
2022-08-02T20:56:22.161Z,61.87
2022-08-02T20:58:51.931Z,62.15
2022-08-02T21:01:21.313Z,62.05
2022-08-02T21:03:58.423Z,62.58
2022-08-02T21:06:27.920Z,62.81
2022-08-02T21:09:00.775Z,63.00
2022-08-02T21:11:33.669Z,63.37
2022-08-02T21:14:07.465Z,63.49
2022-08-02T21:16:37.352Z,63.68
2022-08-02T21:21:50.646Z,63.78
2022-08-02T21:24:17.196Z,63.89
2022-08-02T21:26:47.272Z,64.30
2022-08-02T21:29:15.463Z,64.49
2022-08-02T21:31:41.961Z,64.72
2022-08-02T21:34:26.463Z,64.91
2022-08-02T21:36:56.150Z,65.29
2022-08-02T21:39:22.928Z,65.73
2022-08-02T21:41:49.563Z,66.33
2022-08-02T21:44:17.952Z,66.15
2022-08-02T21:46:50.088Z,66.39
2022-08-02T21:49:41.153Z,65.86
2022-08-02T21:52:08.448Z,66.85
2022-08-02T21:54:35.183Z,67.07
2022-08-02T21:57:15.270Z,67.17
2022-08-02T21:59:47.395Z,67.47
2022-08-02T22:02:15.738Z,67.49
2022-08-02T22:04:47.989Z,67.35
2022-08-02T22:07:17.050Z,68.10
2022-08-02T22:09:45.464Z,68.18
2022-08-02T22:12:18.370Z,68.59
2022-08-02T22:14:49.347Z,68.92
2022-08-02T22:17:21.073Z,68.56
2022-08-02T22:20:08.105Z,68.07
2022-08-02T22:22:34.982Z,68.94
2022-08-02T22:25:01.804Z,68.62
2022-08-02T22:28:35.507Z,69.47
2022-08-02T22:30:17.368Z,69.64
2022-08-02T22:33:15.107Z,69.28
2022-08-02T22:35:44.324Z,69.38
2022-08-02T22:38:16.712Z,70.24
2022-08-02T22:40:46.220Z,70.46
2022-08-02T22:43:13.278Z,69.97
2022-08-02T22:45:49.528Z,69.93
2022-08-02T22:48:16.192Z,70.68
2022-08-02T22:50:42.700Z,71.26
2022-08-02T22:53:09.256Z,71.03
2022-08-02T22:55:41.415Z,71.16
2022-08-02T22:58:08.825Z,71.30
2022-08-02T22:58:44.222Z,47.75
2022-08-02T22:59:02.440Z,63.64
2022-08-02T23:00:35.381Z,71.43
2022-08-02T23:03:01.823Z,71.56
2022-08-02T23:05:30.151Z,71.24
2022-08-02T23:07:56.963Z,72.07
2022-08-02T23:10:24.094Z,72.35
2022-08-02T23:12:50.715Z,72.76
2022-08-02T23:15:17.254Z,72.47
2022-08-02T23:18:02.198Z,72.76
2022-08-02T23:20:29.066Z,72.90
2022-08-02T23:22:55.784Z,73.26
2022-08-02T23:25:22.545Z,72.89
2022-08-02T23:27:51.113Z,73.32
2022-08-02T23:30:18.830Z,73.83
2022-08-02T23:32:46.846Z,73.74
2022-08-02T23:35:17.031Z,74.20
2022-08-02T23:38:00.222Z,74.35
2022-08-02T23:40:39.761Z,74.39
2022-08-02T23:43:13.602Z,74.50
2022-08-02T23:45:44.528Z,74.65
2022-08-02T23:48:11.112Z,74.64
2022-08-02T23:50:37.716Z,74.70
2022-08-02T23:53:04.181Z,74.93
2022-08-02T23:55:31.650Z,74.89
2022-08-02T23:57:58.117Z,75.36
